Langley Air Force Base Hampton US
ICAO: KLFI
IATA: LFI
Category: Large
Scheduled Services: No

Elevation: 11 ft
TransAlt. 18000 ft.

Airport Communications:
NORFOLK APP/DEP:124.9
ATIS:27.01
CLNC DEL:118.85
GND:121.7
NASA OPS:123.375
PMSV METRO:23.98
CNSOLIDATED CMD POST:25.125
PTD:141.75
TWR:125

KLFI Zoom In..

Runways:

(A) RW 08 length 10002 ft width 150 ft
ILS 109.90 / hdg 78

(B) RW 26 length 10002 ft width 150 ft
ILS 109.90 / hdg 258

Location; KLFI
Day. 20 / Time. 16.56 Zulu
* Altimeter: 30.09
* Temperature: 27° c. 80.6°f.
* Wind from: 240° Speed 13 kn with Gusts up to 21 kn.
Dewpoint: 22° c.
Visibility: 9 Statute Miles.
Clouds: Scattered 2400 ft.
Clouds: Broken 4000 ft.
Clouds: Broken 4700 ft.
Clouds: Broken 18000 ft.

KLFI 201656Z 24013G21KT 9SM SCT024 BKN040 BKN047 BKN180 27/22 A3009 RMK AO2A SLP196 T02680222


Wind From 240°
Speed 13 kn.

 
 
jpsmedia.com for Web Design SOUNDCLOUD worldairports.se 2018   terms of use